Terminal Aerodrome Forecast
Issued by NWS Wilmington, OH

Current Version | Previous Version | Graphics & Text | Print | Product List | Glossary On
Versions: 1 2 3 4 5 6 7 8 9 10 11 12 13 14 15 16 17 18 19 20 21 22 23 24 25 26 27
000
FTUS41 KILN 120541
TAFCMH
TAF
KCMH 120541Z 1206/1306 26012KT P6SM BKN060
     FM120900 29016G24KT P6SM OVC015
     FM121400 31018G28KT P6SM OVC022
     FM121700 31018G28KT P6SM OVC035
     FM122100 30018G26KT 3SM -SHSN BKN025 OVC035
      TEMPO 1221/1224 1SM -SHSN
     FM130100 30014G22KT P6SM OVC035=

USA.gov is the U.S. government's official web portal to all federal, state and local government web resources and services.